Blue Ridge, New York
Current Conditions -  °F | °C
As of 3:55 PM on Tuesday 25 Nov 2014 (Local Time) from K6B0 Reporting Station
Overcast Overcast  
Wind Chill: 48°   Ceiling: 6000
Heat Index: 48°   Visibility: 10mi
Dew Point: 26°   Wind: 3mph
Humidity: 43%   Direction: 290°WNW
Pressure: 29.94"   Gusts: NA
Location:  43.8504°N, 73.7678°W
Report Text: K6B0 252055Z AUTO 29003KT 10SM OVC060 09/M03 A2994 RMK AO2 T00871032
Loading
Personal Weather Stations






























Interactive Weather Map New forecast layout! Learn more

10-Day Weather Forecast

Advertisements
Track Severe Weather on mobile